createdAt,value
2023-02-11T00:02:13.953Z,13.10
2023-02-11T00:04:41.664Z,13.55
2023-02-11T00:07:09.313Z,13.45
2023-02-11T00:09:38.291Z,13.95
2023-02-11T00:12:06.009Z,13.55
2023-02-11T00:14:33.603Z,14.23
2023-02-11T00:17:01.303Z,13.80
2023-02-11T00:19:28.910Z,12.88
2023-02-11T00:21:56.578Z,13.85
2023-02-11T00:24:24.236Z,14.25
2023-02-11T00:26:51.878Z,13.45
2023-02-11T00:29:19.493Z,14.73
2023-02-11T00:31:47.300Z,14.23
2023-02-11T00:34:15.055Z,12.68
2023-02-11T00:36:42.792Z,13.60
2023-02-11T00:39:10.695Z,13.02
2023-02-11T00:41:38.285Z,13.43
2023-02-11T00:44:05.991Z,12.93
2023-02-11T00:46:33.782Z,13.07
2023-02-11T00:49:02.374Z,12.40
2023-02-11T00:51:30.108Z,13.90
2023-02-11T00:53:57.735Z,14.40
2023-02-11T00:56:25.408Z,14.13
2023-02-11T00:58:54.041Z,14.50
2023-02-11T01:01:21.731Z,13.98
2023-02-11T01:03:49.397Z,14.50
2023-02-11T01:06:17.105Z,13.93
2023-02-11T01:08:44.759Z,14.95
2023-02-11T01:11:13.508Z,12.73
2023-02-11T01:13:41.153Z,13.23
2023-02-11T01:16:09.761Z,14.15
2023-02-11T01:18:37.435Z,14.20
2023-02-11T01:21:05.150Z,12.75
2023-02-11T01:23:32.779Z,13.13
2023-02-11T01:26:00.557Z,13.25
2023-02-11T01:28:31.041Z,13.32
2023-02-11T01:31:01.760Z,13.15
2023-02-11T01:33:29.635Z,13.25
2023-02-11T01:36:00.539Z,13.63
2023-02-11T01:41:07.521Z,13.82
2023-02-11T01:43:37.475Z,12.88
2023-02-11T01:46:14.044Z,14.52
2023-02-11T01:48:43.437Z,13.93
2023-02-11T01:51:14.252Z,13.85
2023-02-11T01:54:01.129Z,12.95
2023-02-11T01:57:04.975Z,13.63
2023-02-11T01:59:39.042Z,13.88
2023-02-11T02:02:09.353Z,13.23
2023-02-11T02:04:40.799Z,13.65
2023-02-11T02:07:20.744Z,14.18
2023-02-11T02:09:52.713Z,13.32
2023-02-11T02:12:20.360Z,13.15
2023-02-11T02:14:47.972Z,12.73
2023-02-11T02:17:25.746Z,13.75
2023-02-11T02:20:16.621Z,13.40
2023-02-11T02:22:53.460Z,14.05
2023-02-11T02:25:29.134Z,13.82
2023-02-11T02:28:15.380Z,13.35
2023-02-11T02:30:43.148Z,14.25
2023-02-11T02:33:23.826Z,13.52
2023-02-11T02:35:59.148Z,14.30
2023-02-11T02:38:26.785Z,13.52
2023-02-11T02:40:57.688Z,13.57
2023-02-11T02:43:26.962Z,14.17
2023-02-11T02:45:54.831Z,13.77
2023-02-11T02:48:29.741Z,13.68
2023-02-11T02:51:20.384Z,13.90
2023-02-11T02:54:06.953Z,14.10
2023-02-11T02:56:44.638Z,13.35
2023-02-11T02:59:12.364Z,13.45
2023-02-11T03:01:43.009Z,13.65
2023-02-11T03:04:19.416Z,12.70
2023-02-11T03:07:10.361Z,13.02
2023-02-11T03:09:43.505Z,13.82
2023-02-11T03:12:12.141Z,13.73
2023-02-11T03:14:40.191Z,13.70
2023-02-11T03:17:09.517Z,13.63
2023-02-11T03:19:43.334Z,13.63
2023-02-11T03:22:25.993Z,13.35
2023-02-11T03:24:54.496Z,13.95
2023-02-11T03:27:26.703Z,13.07
2023-02-11T03:30:06.497Z,14.38
2023-02-11T03:32:39.012Z,13.63
2023-02-11T03:35:09.541Z,13.75
2023-02-11T03:37:43.053Z,13.00
2023-02-11T03:40:12.597Z,13.40
2023-02-11T03:43:00.402Z,13.52
2023-02-11T03:45:28.918Z,13.13
2023-02-11T03:47:58.968Z,14.55
2023-02-11T03:50:27.511Z,14.65
2023-02-11T03:52:55.850Z,15.10
2023-02-11T03:55:25.960Z,14.32
2023-02-11T03:57:53.587Z,13.80
2023-02-11T04:00:21.264Z,14.35
2023-02-11T04:02:48.957Z,15.38
2023-02-11T04:05:17.056Z,13.73
2023-02-11T04:07:44.742Z,14.80
2023-02-11T04:10:13.013Z,15.55
2023-02-11T04:12:40.608Z,15.48
2023-02-11T04:15:08.755Z,14.95
2023-02-11T04:17:36.494Z,14.98
2023-02-11T04:20:04.484Z,15.48
2023-02-11T04:22:32.364Z,16.33
2023-02-11T04:25:00.013Z,15.77
2023-02-11T04:27:27.656Z,16.02
2023-02-11T04:29:55.328Z,15.63
2023-02-11T04:32:22.995Z,17.17
2023-02-11T04:34:50.846Z,17.88
2023-02-11T04:37:18.740Z,17.02
2023-02-11T04:39:46.434Z,17.20
2023-02-11T04:42:14.221Z,17.90
2023-02-11T04:44:41.900Z,18.27
2023-02-11T04:47:09.582Z,17.77
2023-02-11T04:49:37.264Z,18.80
2023-02-11T04:52:05.239Z,20.77
2023-02-11T04:54:32.854Z,20.27
2023-02-11T04:57:00.483Z,19.80
2023-02-11T04:59:28.124Z,21.23
2023-02-11T05:01:55.920Z,23.25
2023-02-11T05:04:23.588Z,24.77
2023-02-11T05:06:51.372Z,29.67
2023-02-11T05:09:19.132Z,32.70
2023-02-11T05:11:46.735Z,37.20
2023-02-11T05:14:14.381Z,43.42
2023-02-11T05:16:42.112Z,45.30
2023-02-11T05:19:10.284Z,52.55
2023-02-11T05:21:37.850Z,55.78
2023-02-11T05:24:05.676Z,59.88
2023-02-11T05:26:33.439Z,64.95
2023-02-11T05:29:01.131Z,65.03
2023-02-11T05:31:28.800Z,70.78
2023-02-11T05:33:56.467Z,72.68
2023-02-11T05:36:24.122Z,73.95
2023-02-11T05:38:51.846Z,77.28
2023-02-11T05:41:19.777Z,79.60
2023-02-11T05:43:51.056Z,81.00
2023-02-11T05:46:18.710Z,77.70
2023-02-11T05:48:46.417Z,79.95
2023-02-11T05:51:14.006Z,91.90
2023-02-11T05:53:41.610Z,84.85
2023-02-11T05:56:10.453Z,85.05
2023-02-11T05:58:38.877Z,83.75
2023-02-11T06:01:06.538Z,83.53
2023-02-11T06:03:34.330Z,82.45
2023-02-11T06:06:01.984Z,80.60
2023-02-11T06:08:29.681Z,74.55
2023-02-11T06:10:57.315Z,73.05
2023-02-11T06:13:24.979Z,72.78
2023-02-11T06:16:02.277Z,71.47
2023-02-11T06:18:30.060Z,70.40
2023-02-11T06:20:57.658Z,67.93
2023-02-11T06:23:25.308Z,69.68
2023-02-11T06:25:53.503Z,66.22
2023-02-11T06:28:21.355Z,68.95
2023-02-11T06:30:49.267Z,69.43
2023-02-11T06:33:16.930Z,74.10
2023-02-11T06:35:44.540Z,70.93
2023-02-11T06:38:12.250Z,74.97
2023-02-11T06:40:39.968Z,73.28
2023-02-11T06:43:07.578Z,77.10
2023-02-11T06:45:35.172Z,76.45
2023-02-11T06:48:02.812Z,78.82
2023-02-11T06:50:30.478Z,78.28
2023-02-11T06:52:59.911Z,79.47
2023-02-11T06:55:27.669Z,81.07
2023-02-11T06:57:55.337Z,84.47
2023-02-11T07:00:22.958Z,83.57
2023-02-11T07:02:50.656Z,83.55
2023-02-11T07:05:18.383Z,83.00
2023-02-11T07:07:46.038Z,82.53
2023-02-11T07:10:13.912Z,83.75
2023-02-11T07:12:41.626Z,86.40
2023-02-11T07:15:09.462Z,79.82
2023-02-11T07:17:37.117Z,83.53
2023-02-11T07:20:04.926Z,84.20
2023-02-11T07:22:32.647Z,79.80
2023-02-11T07:25:00.278Z,82.95
2023-02-11T07:27:27.923Z,84.93
2023-02-11T07:29:55.549Z,86.30
2023-02-11T07:32:23.122Z,84.28
2023-02-11T07:34:50.806Z,83.88
2023-02-11T07:37:18.983Z,85.55
2023-02-11T07:39:46.671Z,85.25
2023-02-11T07:42:14.267Z,87.38
2023-02-11T07:44:42.130Z,85.45
2023-02-11T07:47:09.793Z,82.28
2023-02-11T07:49:37.444Z,82.35
2023-02-11T07:52:05.128Z,80.25
2023-02-11T07:54:32.805Z,83.32
2023-02-11T07:57:00.497Z,78.90
2023-02-11T07:59:28.188Z,73.60
2023-02-11T08:01:55.896Z,70.95
2023-02-11T08:04:23.746Z,76.35
2023-02-11T08:06:52.908Z,69.35
2023-02-11T08:09:20.528Z,59.83
2023-02-11T08:11:48.206Z,62.42
2023-02-11T08:14:15.861Z,71.72
2023-02-11T08:16:43.538Z,73.80
2023-02-11T08:19:12.657Z,75.43
2023-02-11T08:21:40.673Z,75.50
2023-02-11T08:24:08.663Z,75.55
2023-02-11T08:26:36.746Z,75.18
2023-02-11T08:29:07.628Z,77.03
2023-02-11T08:31:36.917Z,74.82
2023-02-11T08:34:04.948Z,69.97
2023-02-11T08:36:34.244Z,65.35
2023-02-11T08:39:18.103Z,57.83
2023-02-11T08:41:48.760Z,53.15
2023-02-11T08:44:17.123Z,46.47
2023-02-11T08:46:44.855Z,39.40
2023-02-11T08:49:12.688Z,35.05
2023-02-11T08:51:40.669Z,32.92
2023-02-11T08:54:09.887Z,33.22
2023-02-11T08:56:38.064Z,31.13
2023-02-11T08:59:06.229Z,30.27
2023-02-11T09:01:34.339Z,27.95
2023-02-11T09:04:02.038Z,27.33
2023-02-11T09:06:29.940Z,26.35
2023-02-11T09:08:58.333Z,26.95
2023-02-11T09:11:27.749Z,24.10
2023-02-11T09:13:55.530Z,25.00
2023-02-11T09:21:19.110Z,22.35
2023-02-11T09:23:47.896Z,22.02
2023-02-11T09:26:20.550Z,22.58
2023-02-11T09:31:18.007Z,21.75
2023-02-11T09:33:49.980Z,25.58
2023-02-11T09:36:18.952Z,25.58
2023-02-11T09:38:46.902Z,25.45
2023-02-11T09:41:34.839Z,24.52
2023-02-11T09:44:05.000Z,22.43
2023-02-11T09:46:35.268Z,23.88
2023-02-11T09:49:03.857Z,22.63
2023-02-11T09:51:46.432Z,21.35
2023-02-11T09:54:17.879Z,22.35
2023-02-11T09:56:45.518Z,22.67
2023-02-11T09:59:16.660Z,22.10
2023-02-11T10:01:48.248Z,21.92
2023-02-11T10:04:31.057Z,22.40
2023-02-11T10:07:03.032Z,22.95
2023-02-11T10:09:33.633Z,22.80
2023-02-11T10:12:01.198Z,22.88
2023-02-11T10:14:28.772Z,22.75
2023-02-11T10:17:22.799Z,21.70
2023-02-11T10:19:50.404Z,23.13
2023-02-11T10:22:18.333Z,22.33
2023-02-11T10:24:58.485Z,21.90
2023-02-11T10:27:34.052Z,21.35
2023-02-11T10:30:10.964Z,21.98
2023-02-11T10:32:50.264Z,18.85
2023-02-11T10:35:19.520Z,19.55
2023-02-11T10:37:47.157Z,19.45
2023-02-11T10:40:18.907Z,17.58
2023-02-11T10:45:24.773Z,17.85
2023-02-11T10:47:52.483Z,17.83
2023-02-11T10:50:21.970Z,17.85
2023-02-11T10:52:49.688Z,18.00
2023-02-11T10:55:20.895Z,17.88
2023-02-11T10:57:54.221Z,17.33
2023-02-11T11:00:27.816Z,17.73
2023-02-11T11:03:00.390Z,19.20
2023-02-11T11:05:31.091Z,19.15
2023-02-11T11:08:05.311Z,17.67
2023-02-11T11:10:43.646Z,19.60
2023-02-11T11:13:23.616Z,19.10
2023-02-11T11:16:09.534Z,19.45
2023-02-11T11:18:37.323Z,19.05
2023-02-11T11:21:13.382Z,17.88
2023-02-11T11:23:47.473Z,17.63
2023-02-11T11:26:16.260Z,17.63
2023-02-11T11:28:50.078Z,18.80
2023-02-11T11:31:19.946Z,17.67
2023-02-11T11:33:48.118Z,18.63
2023-02-11T11:36:18.016Z,17.35
2023-02-11T11:38:49.282Z,17.10
2023-02-11T11:41:18.341Z,18.02
2023-02-11T11:44:18.569Z,17.25
2023-02-11T11:46:47.025Z,17.05
2023-02-11T11:49:14.709Z,18.23
2023-02-11T11:51:46.179Z,18.30
2023-02-11T11:54:14.818Z,18.27
2023-02-11T11:56:45.792Z,18.33
2023-02-11T11:59:16.668Z,17.67
2023-02-11T12:01:47.336Z,17.98
2023-02-11T12:04:15.068Z,17.90
2023-02-11T12:06:45.775Z,18.45
2023-02-11T12:09:18.169Z,19.83
2023-02-11T12:11:48.936Z,20.45
2023-02-11T12:14:24.887Z,19.83
2023-02-11T12:17:04.608Z,19.75
2023-02-11T12:19:44.255Z,20.45
2023-02-11T12:22:13.248Z,19.35
2023-02-11T12:24:49.940Z,19.45
2023-02-11T12:27:22.738Z,20.17
2023-02-11T12:32:29.844Z,20.65
2023-02-11T12:35:06.772Z,20.58
2023-02-11T12:37:47.554Z,20.85
2023-02-11T12:40:18.184Z,19.70
2023-02-11T12:43:18.805Z,20.20
2023-02-11T12:45:50.804Z,21.10
2023-02-11T12:48:22.691Z,19.77
2023-02-11T12:50:50.626Z,19.90
2023-02-11T12:53:21.466Z,20.60
2023-02-11T12:55:51.738Z,20.50
2023-02-11T12:58:23.869Z,20.20
2023-02-11T13:01:06.325Z,20.58
2023-02-11T13:03:36.799Z,19.98
2023-02-11T13:06:08.577Z,20.20
2023-02-11T13:11:07.895Z,18.55
2023-02-11T13:16:07.791Z,19.08
2023-02-11T13:18:36.983Z,18.35
2023-02-11T13:21:17.815Z,18.35
2023-02-11T13:24:00.539Z,18.23
2023-02-11T13:26:40.716Z,17.88
2023-02-11T13:29:17.647Z,16.10
2023-02-11T13:31:54.402Z,16.13
2023-02-11T13:34:26.635Z,16.17
2023-02-11T13:36:55.646Z,15.68
2023-02-11T13:39:23.368Z,14.40
2023-02-11T13:41:52.914Z,15.05
2023-02-11T13:44:22.894Z,14.75
2023-02-11T13:46:53.941Z,14.57
2023-02-11T13:49:42.067Z,14.03
2023-02-11T13:52:22.970Z,13.18
2023-02-11T13:57:21.772Z,13.20
2023-02-11T13:59:52.390Z,14.27
2023-02-11T14:02:41.522Z,13.10
2023-02-11T14:05:27.655Z,12.40
2023-02-11T14:10:44.710Z,14.57
2023-02-11T14:15:40.977Z,13.95
2023-02-11T14:18:27.249Z,13.80
2023-02-11T14:21:07.492Z,13.00
2023-02-11T14:23:37.420Z,12.20
2023-02-11T14:26:20.415Z,12.48
2023-02-11T14:29:08.753Z,13.07
2023-02-11T14:31:44.564Z,11.98
2023-02-11T14:34:38.026Z,12.93
2023-02-11T14:37:20.937Z,13.13
2023-02-11T14:39:54.371Z,12.32
2023-02-11T14:42:26.561Z,12.00
2023-02-11T14:44:56.171Z,12.48
2023-02-11T14:47:30.577Z,12.45
2023-02-11T14:49:58.289Z,12.93
2023-02-11T14:52:30.670Z,13.27
2023-02-11T14:55:21.362Z,13.10
2023-02-11T14:57:51.122Z,15.63
2023-02-11T15:00:22.788Z,16.17
2023-02-11T15:02:50.615Z,14.77
2023-02-11T15:05:26.756Z,15.27
2023-02-11T15:07:55.642Z,15.32
2023-02-11T15:10:35.851Z,14.73
2023-02-11T15:13:04.263Z,15.63
2023-02-11T15:15:32.907Z,16.23
2023-02-11T15:18:01.896Z,16.02
2023-02-11T15:20:31.865Z,16.42
2023-02-11T15:23:03.900Z,16.13
2023-02-11T15:25:34.072Z,15.65
2023-02-11T15:28:01.989Z,16.67
2023-02-11T15:30:31.734Z,17.42
2023-02-11T15:33:00.773Z,18.23
2023-02-11T15:35:30.074Z,16.98
2023-02-11T15:37:59.201Z,18.30
2023-02-11T15:40:28.140Z,18.27
2023-02-11T15:42:58.358Z,17.58
2023-02-11T15:45:29.163Z,18.13
2023-02-11T15:47:58.557Z,17.90
2023-02-11T15:50:28.970Z,18.77
2023-02-11T15:52:58.176Z,18.40
2023-02-11T15:55:26.891Z,17.75
2023-02-11T15:58:12.842Z,17.35
2023-02-11T16:00:47.203Z,17.75
2023-02-11T16:03:22.183Z,16.90
2023-02-11T16:05:49.904Z,17.67
2023-02-11T16:08:24.497Z,18.58
2023-02-11T16:10:58.568Z,16.92
2023-02-11T16:13:33.675Z,18.15
2023-02-11T16:16:06.415Z,18.85
2023-02-11T16:18:39.987Z,18.48
2023-02-11T16:21:14.704Z,17.30
2023-02-11T16:23:42.600Z,18.00
2023-02-11T16:26:20.604Z,19.33
2023-02-11T16:28:48.372Z,18.35
2023-02-11T16:31:16.430Z,19.42
2023-02-11T16:33:44.189Z,20.50
2023-02-11T16:36:17.281Z,19.23
2023-02-11T16:38:44.938Z,21.65
2023-02-11T16:41:12.819Z,19.83
2023-02-11T16:43:40.560Z,19.90
2023-02-11T16:46:09.354Z,21.73
2023-02-11T16:48:38.428Z,20.60
2023-02-11T16:51:09.317Z,20.83
2023-02-11T16:53:37.072Z,20.20
2023-02-11T16:56:04.820Z,20.52
2023-02-11T16:58:32.435Z,20.10
2023-02-11T17:01:00.241Z,22.60
2023-02-11T17:03:30.089Z,20.98
2023-02-11T17:05:58.016Z,21.02
2023-02-11T17:08:25.656Z,19.48
2023-02-11T17:10:53.595Z,19.95
2023-02-11T17:13:21.331Z,20.63
2023-02-11T17:15:49.241Z,20.95
2023-02-11T17:18:16.922Z,20.88
2023-02-11T17:20:44.554Z,20.42
2023-02-11T17:23:12.184Z,20.35
2023-02-11T17:25:40.676Z,20.55
2023-02-11T17:28:09.427Z,21.30
2023-02-11T17:30:37.162Z,22.48
2023-02-11T17:33:04.784Z,20.42
2023-02-11T17:35:32.331Z,21.48
2023-02-11T17:38:01.439Z,20.30
2023-02-11T17:40:29.082Z,21.10
2023-02-11T17:42:56.655Z,21.08
2023-02-11T17:45:24.344Z,20.85
2023-02-11T17:47:52.301Z,21.60
2023-02-11T17:50:19.890Z,22.52
2023-02-11T17:52:47.455Z,21.75
2023-02-11T17:55:15.145Z,22.20
2023-02-11T17:57:42.772Z,23.73
2023-02-11T18:00:10.661Z,21.38
2023-02-11T18:02:41.047Z,23.35
2023-02-11T18:05:08.865Z,22.83
2023-02-11T18:07:36.512Z,22.50
2023-02-11T18:10:05.935Z,23.90
2023-02-11T18:12:33.631Z,23.60
2023-02-11T18:15:01.280Z,23.73
2023-02-11T18:17:29.002Z,22.83
2023-02-11T18:19:57.134Z,24.05
2023-02-11T18:22:25.452Z,24.08
2023-02-11T18:24:54.010Z,25.52
2023-02-11T18:27:22.178Z,24.98
2023-02-11T18:29:49.786Z,25.55
2023-02-11T18:32:17.571Z,24.58
2023-02-11T18:34:45.190Z,24.77
2023-02-11T18:37:14.276Z,24.38
2023-02-11T18:39:42.306Z,24.52
2023-02-11T18:42:10.272Z,24.33
2023-02-11T18:44:38.025Z,25.52
2023-02-11T18:47:05.628Z,24.58
2023-02-11T18:49:35.665Z,22.85
2023-02-11T18:52:03.938Z,25.52
2023-02-11T18:54:31.591Z,24.05
2023-02-11T18:56:59.209Z,25.20
2023-02-11T18:59:26.835Z,25.75
2023-02-11T19:01:54.478Z,26.52
2023-02-11T19:04:23.333Z,26.55
2023-02-11T19:06:51.036Z,26.85
2023-02-11T19:09:19.964Z,26.25
2023-02-11T19:11:47.729Z,27.95
2023-02-11T19:14:16.354Z,28.65
2023-02-11T19:16:45.020Z,28.67
2023-02-11T19:19:13.408Z,27.67
2023-02-11T19:21:42.739Z,28.27
2023-02-11T19:24:10.734Z,28.73
2023-02-11T19:26:38.540Z,28.63
2023-02-11T19:29:06.822Z,29.15
2023-02-11T19:31:35.324Z,31.05
2023-02-11T19:34:03.497Z,29.63
2023-02-11T19:36:31.357Z,30.48
2023-02-11T19:39:02.290Z,31.77
2023-02-11T19:41:30.213Z,30.50
2023-02-11T19:43:57.892Z,30.95
2023-02-11T19:46:27.891Z,29.25
2023-02-11T19:48:55.669Z,31.55
2023-02-11T19:51:23.584Z,31.50
2023-02-11T19:53:51.486Z,31.10
2023-02-11T19:56:20.848Z,30.90
2023-02-11T19:58:48.727Z,32.90
2023-02-11T20:01:17.953Z,32.97
2023-02-11T20:03:47.297Z,31.23
2023-02-11T20:06:17.203Z,32.67
2023-02-11T20:08:44.885Z,32.45
2023-02-11T20:11:13.768Z,33.40
2023-02-11T20:13:41.342Z,30.23
2023-02-11T20:16:10.676Z,31.17
2023-02-11T20:18:39.284Z,32.45
2023-02-11T20:21:08.198Z,33.40
2023-02-11T20:23:36.227Z,35.10
2023-02-11T20:26:07.832Z,33.28
2023-02-11T20:28:35.582Z,36.70
2023-02-11T20:31:03.939Z,36.38
2023-02-11T20:33:32.181Z,39.78
2023-02-11T20:36:01.274Z,41.65
2023-02-11T20:38:29.126Z,41.72
2023-02-11T20:41:03.472Z,44.45
2023-02-11T20:43:31.495Z,44.00
2023-02-11T20:46:02.838Z,42.67
2023-02-11T20:48:30.793Z,46.53
2023-02-11T20:51:08.290Z,45.58
2023-02-11T20:53:36.434Z,47.60
2023-02-11T20:56:04.699Z,47.60
2023-02-11T20:58:32.776Z,48.50
2023-02-11T21:01:13.986Z,48.47
2023-02-11T21:03:44.002Z,49.47
2023-02-11T21:06:12.321Z,50.88
2023-02-11T21:08:39.981Z,49.53
2023-02-11T21:11:11.011Z,48.97
2023-02-11T21:13:39.240Z,51.40
2023-02-11T21:16:07.376Z,50.63
2023-02-11T21:18:35.124Z,52.90
2023-02-11T21:21:06.015Z,52.28
2023-02-11T21:26:03.362Z,48.22
2023-02-11T21:28:31.045Z,50.55
2023-02-11T21:30:59.085Z,49.85
2023-02-11T21:33:27.621Z,50.38
2023-02-11T21:35:56.447Z,50.25
2023-02-11T21:38:24.777Z,50.17
2023-02-11T21:40:52.742Z,47.47
2023-02-11T21:43:20.456Z,47.95
2023-02-11T21:45:49.511Z,46.58
2023-02-11T21:48:17.847Z,45.80
2023-02-11T21:50:46.779Z,45.22
2023-02-11T21:53:14.862Z,43.53
2023-02-11T21:55:42.616Z,42.70
2023-02-11T21:58:11.531Z,40.10
2023-02-11T22:00:39.667Z,40.33
2023-02-11T22:03:07.528Z,40.00
2023-02-11T22:05:35.145Z,42.17
2023-02-11T22:08:02.865Z,40.10
2023-02-11T22:10:30.505Z,39.50
2023-02-11T22:12:58.108Z,38.53
2023-02-11T22:15:25.826Z,40.83
2023-02-11T22:17:53.496Z,41.58
2023-02-11T22:20:21.195Z,41.30
2023-02-11T22:22:49.138Z,40.72
2023-02-11T22:25:16.799Z,40.42
2023-02-11T22:27:44.556Z,40.03
2023-02-11T22:30:12.608Z,39.67
2023-02-11T22:32:42.444Z,39.95
2023-02-11T22:35:10.071Z,39.95
2023-02-11T22:37:37.847Z,40.22
2023-02-11T22:40:05.751Z,37.92
2023-02-11T22:42:33.388Z,41.05
2023-02-11T22:45:01.089Z,39.75
2023-02-11T22:47:28.707Z,40.30
2023-02-11T22:49:56.336Z,39.75
2023-02-11T22:52:23.928Z,41.40
2023-02-11T22:54:52.241Z,41.65
2023-02-11T22:57:19.879Z,41.97
2023-02-11T22:59:49.249Z,37.70
2023-02-11T23:02:17.066Z,40.45
2023-02-11T23:04:44.803Z,38.45
2023-02-11T23:07:13.295Z,41.13
2023-02-11T23:09:40.984Z,39.53
2023-02-11T23:12:08.621Z,39.88
2023-02-11T23:14:36.232Z,40.28
2023-02-11T23:17:03.885Z,38.20
2023-02-11T23:19:31.582Z,37.72
2023-02-11T23:21:59.177Z,35.28
2023-02-11T23:24:26.768Z,36.22
2023-02-11T23:26:54.518Z,34.75
2023-02-11T23:29:22.172Z,36.75
2023-02-11T23:31:50.104Z,35.08
2023-02-11T23:34:20.298Z,34.35
2023-02-11T23:36:47.919Z,36.28
2023-02-11T23:39:16.963Z,34.78
2023-02-11T23:41:45.143Z,32.80
2023-02-11T23:44:12.844Z,34.42
2023-02-11T23:46:40.489Z,32.92
2023-02-11T23:49:08.151Z,33.35
2023-02-11T23:51:35.757Z,32.00
2023-02-11T23:54:03.387Z,32.88
2023-02-11T23:56:31.096Z,29.20
2023-02-11T23:58:59.389Z,31.30
